ITA weather

Islita Airport
San Luis Rio Colorado, Sonora, Mexico

Public forecast

Using degrees Celsius for public forecast. Weather courtesy of forecast.io.

METAR (pilot weather report)

Closest report is Yuma MCAS/Yuma International Airport, 20.5 nm (38.0 km) NE. Retrieved 2019/08/20 14:57 UTC (35 minutes ago):

KNYL 201457Z 00000KT 7SM CLR 32/12 A2979 RMK AO2 SLP085 T03220117 52013 $

TAF (pilot weather forecast)

Forecast is more than 12 hours old.

Closest forecast is Yuma MCAS/Yuma International Airport, 20.5 nm (38.0 km) NE. Retrieved 2014/04/27 15:15 UTC (5 years ago):

TAF TAF COR KNYL 271500Z 2715/2815 VRB06KT 9999 FEW250 QNH2989INS BECMG 2716/2718 26007KT QNH2978INS BECMG 2806/2808 VRB05KT QNH2981INS AUTOMATED SENSOR METWATCH 2715 TIL 2815 TX22/2723Z TN10/2813Z COR 1545